Terminal Aerodrome Forecast
Issued by NWS

Home | Current Version | Previous Version | Text Only | Print | Product List | Glossary On
Versions: 1 2 3 4 5 6 7 8 9 10 11 12 13 14 15 16 17 18 19 20 21 22 23 24 25 26
845
FTUS46 KMTR 090102 AAA
TAFSFO
TAF AMD
KSFO 090102Z 0901/1006 10004KT 4SM BR FEW005 BKN015 OVC025
      TEMPO 0901/0904 2SM -RA BR
     FM090500 18006KT 4SM BR VCSH OVC012
     FM091400 15004KT 2SM BR VCSH BKN007 OVC010
     FM092000 19006KT P6SM VCSH BKN010 OVC025
     FM100100 15006KT 4SM -RA BR SCT008 OVC015=

USA.gov is the U.S. government's official web portal to all federal, state and local government web resources and services.